sensor_id;sensor_type;location;lat;lon;timestamp;pressure;altitude;pressure_sealevel;temperature;humidity
68994;BME280;56054;50.968;5.816;2023-07-24T00:01:21;99748.09;;;19.57;100.00
68994;BME280;56054;50.968;5.816;2023-07-24T00:04:30;99737.72;;;19.70;100.00
68994;BME280;56054;50.968;5.816;2023-07-24T00:07:37;99731.53;;;19.67;100.00
68994;BME280;56054;50.968;5.816;2023-07-24T00:10:44;99740.34;;;19.70;100.00
68994;BME280;56054;50.968;5.816;2023-07-24T00:13:52;99735.19;;;19.80;100.00
68994;BME280;56054;50.968;5.816;2023-07-24T00:16:58;99733.44;;;19.81;100.00
68994;BME280;56054;50.968;5.816;2023-07-24T00:20:12;99731.56;;;19.69;100.00
68994;BME280;56054;50.968;5.816;2023-07-24T00:23:19;99725.44;;;19.72;100.00
68994;BME280;56054;50.968;5.816;2023-07-24T00:26:26;99728.97;;;19.74;100.00
68994;BME280;56054;50.968;5.816;2023-07-24T00:29:33;99727.19;;;19.73;100.00
68994;BME280;56054;50.968;5.816;2023-07-24T00:32:40;99720.25;;;19.78;100.00
68994;BME280;56054;50.968;5.816;2023-07-24T00:35:47;99715.75;;;19.69;100.00
68994;BME280;56054;50.968;5.816;2023-07-24T00:38:54;99704.34;;;19.72;100.00
68994;BME280;56054;50.968;5.816;2023-07-24T00:42:04;99699.19;;;19.81;100.00
68994;BME280;56054;50.968;5.816;2023-07-24T00:45:11;99700.00;;;19.75;100.00
68994;BME280;56054;50.968;5.816;2023-07-24T00:48:18;99692.09;;;19.77;100.00
68994;BME280;56054;50.968;5.816;2023-07-24T00:51:27;99689.53;;;19.83;100.00
68994;BME280;56054;50.968;5.816;2023-07-24T00:54:34;99681.66;;;19.86;100.00
68994;BME280;56054;50.968;5.816;2023-07-24T00:57:40;99678.06;;;19.78;100.00
68994;BME280;56054;50.968;5.816;2023-07-24T01:00:48;99677.97;;;19.69;100.00
68994;BME280;56054;50.968;5.816;2023-07-24T01:03:56;99675.53;;;19.88;100.00
68994;BME280;56054;50.968;5.816;2023-07-24T01:07:05;99678.19;;;19.90;100.00
68994;BME280;56054;50.968;5.816;2023-07-24T01:10:12;99667.66;;;19.93;100.00
68994;BME280;56054;50.968;5.816;2023-07-24T01:13:22;99649.94;;;19.77;100.00
68994;BME280;56054;50.968;5.816;2023-07-24T01:16:36;99649.00;;;19.72;100.00
68994;BME280;56054;50.968;5.816;2023-07-24T01:19:47;99644.63;;;19.74;100.00
68994;BME280;56054;50.968;5.816;2023-07-24T01:23:11;99646.38;;;19.72;100.00
68994;BME280;56054;50.968;5.816;2023-07-24T01:26:20;99640.13;;;19.65;100.00
68994;BME280;56054;50.968;5.816;2023-07-24T01:29:27;99638.50;;;19.76;100.00
68994;BME280;56054;50.968;5.816;2023-07-24T01:32:34;99634.06;;;19.69;100.00
68994;BME280;56054;50.968;5.816;2023-07-24T01:35:43;99636.69;;;19.69;100.00
68994;BME280;56054;50.968;5.816;2023-07-24T01:38:51;99634.88;;;19.63;100.00
68994;BME280;56054;50.968;5.816;2023-07-24T01:41:57;99622.63;;;19.69;100.00
68994;BME280;56054;50.968;5.816;2023-07-24T01:45:05;99628.94;;;19.86;100.00
68994;BME280;56054;50.968;5.816;2023-07-24T01:48:12;99628.84;;;19.77;100.00
68994;BME280;56054;50.968;5.816;2023-07-24T01:51:21;99615.72;;;19.83;100.00
68994;BME280;56054;50.968;5.816;2023-07-24T01:54:27;99622.75;;;19.84;100.00
68994;BME280;56054;50.968;5.816;2023-07-24T01:57:35;99613.22;;;20.00;100.00
68994;BME280;56054;50.968;5.816;2023-07-24T02:00:42;99603.47;;;19.89;100.00
68994;BME280;56054;50.968;5.816;2023-07-24T02:03:48;99611.44;;;19.97;100.00
68994;BME280;56054;50.968;5.816;2023-07-24T02:06:55;99617.56;;;19.93;100.00
68994;BME280;56054;50.968;5.816;2023-07-24T02:10:03;99607.75;;;19.77;100.00
68994;BME280;56054;50.968;5.816;2023-07-24T02:13:09;99626.94;;;19.62;100.00
68994;BME280;56054;50.968;5.816;2023-07-24T02:16:22;99619.88;;;19.56;100.00
68994;BME280;56054;50.968;5.816;2023-07-24T02:19:30;99608.34;;;19.45;100.00
68994;BME280;56054;50.968;5.816;2023-07-24T02:22:36;99593.34;;;19.41;100.00
68994;BME280;56054;50.968;5.816;2023-07-24T02:25:43;99590.88;;;19.53;100.00
68994;BME280;56054;50.968;5.816;2023-07-24T02:28:50;99598.59;;;19.35;100.00
68994;BME280;56054;50.968;5.816;2023-07-24T02:31:58;99605.72;;;19.48;100.00
68994;BME280;56054;50.968;5.816;2023-07-24T02:35:06;99595.97;;;19.36;100.00
68994;BME280;56054;50.968;5.816;2023-07-24T02:38:13;99590.72;;;19.39;100.00
68994;BME280;56054;50.968;5.816;2023-07-24T02:41:20;99588.94;;;19.38;100.00
68994;BME280;56054;50.968;5.816;2023-07-24T02:44:27;99595.13;;;19.39;100.00
68994;BME280;56054;50.968;5.816;2023-07-24T02:47:36;99583.56;;;19.24;100.00
68994;BME280;56054;50.968;5.816;2023-07-24T02:50:43;99580.88;;;19.18;100.00
68994;BME280;56054;50.968;5.816;2023-07-24T02:53:53;99576.66;;;19.37;100.00
68994;BME280;56054;50.968;5.816;2023-07-24T02:57:00;99570.53;;;19.40;100.00
68994;BME280;56054;50.968;5.816;2023-07-24T03:03:32;99583.69;;;19.38;100.00
68994;BME280;56054;50.968;5.816;2023-07-24T03:06:43;99580.13;;;19.33;100.00
68994;BME280;56054;50.968;5.816;2023-07-24T03:10:16;99587.16;;;19.36;100.00
68994;BME280;56054;50.968;5.816;2023-07-24T03:13:30;99586.44;;;19.52;100.00
68994;BME280;56054;50.968;5.816;2023-07-24T03:16:37;99591.53;;;19.31;100.00
68994;BME280;56054;50.968;5.816;2023-07-24T03:19:44;99580.81;;;19.12;100.00
68994;BME280;56054;50.968;5.816;2023-07-24T03:22:53;99574.97;;;19.45;100.00
68994;BME280;56054;50.968;5.816;2023-07-24T03:25:59;99574.06;;;19.42;100.00
68994;BME280;56054;50.968;5.816;2023-07-24T03:29:09;99567.97;;;19.46;100.00
68994;BME280;56054;50.968;5.816;2023-07-24T03:32:18;99556.47;;;19.41;100.00
68994;BME280;56054;50.968;5.816;2023-07-24T03:35:25;99561.69;;;19.32;100.00
68994;BME280;56054;50.968;5.816;2023-07-24T03:38:36;99556.47;;;19.36;100.00
68994;BME280;56054;50.968;5.816;2023-07-24T03:41:44;99549.22;;;19.12;100.00
68994;BME280;56054;50.968;5.816;2023-07-24T03:44:58;99549.28;;;19.21;100.00
68994;BME280;56054;50.968;5.816;2023-07-24T03:48:07;99538.81;;;19.28;100.00
68994;BME280;56054;50.968;5.816;2023-07-24T03:51:13;99541.41;;;19.20;100.00
68994;BME280;56054;50.968;5.816;2023-07-24T03:54:20;99541.34;;;19.12;100.00
68994;BME280;56054;50.968;5.816;2023-07-24T03:57:27;99541.47;;;19.28;100.00
68994;BME280;56054;50.968;5.816;2023-07-24T04:00:34;99550.19;;;19.23;100.00
68994;BME280;56054;50.968;5.816;2023-07-24T04:03:42;99543.16;;;19.21;100.00
68994;BME280;56054;50.968;5.816;2023-07-24T04:06:50;99530.94;;;19.28;100.00
68994;BME280;56054;50.968;5.816;2023-07-24T04:09:57;99539.78;;;19.34;100.00
68994;BME280;56054;50.968;5.816;2023-07-24T04:13:03;99545.84;;;19.29;100.00
68994;BME280;56054;50.968;5.816;2023-07-24T04:16:10;99548.59;;;19.41;100.00
68994;BME280;56054;50.968;5.816;2023-07-24T04:19:17;99538.09;;;19.44;100.00
68994;BME280;56054;50.968;5.816;2023-07-24T04:22:25;99531.81;;;19.27;100.00
68994;BME280;56054;50.968;5.816;2023-07-24T04:25:31;99530.88;;;19.23;100.00
68994;BME280;56054;50.968;5.816;2023-07-24T04:28:39;99537.09;;;19.30;100.00
68994;BME280;56054;50.968;5.816;2023-07-24T04:31:45;99544.88;;;19.19;100.00
68994;BME280;56054;50.968;5.816;2023-07-24T04:34:53;99553.69;;;19.19;100.00
68994;BME280;56054;50.968;5.816;2023-07-24T04:37:59;99544.09;;;19.28;100.00
68994;BME280;56054;50.968;5.816;2023-07-24T04:41:06;99549.34;;;19.28;100.00
68994;BME280;56054;50.968;5.816;2023-07-24T04:44:13;99565.91;;;19.13;100.00
68994;BME280;56054;50.968;5.816;2023-07-24T04:47:21;99581.69;;;19.13;100.00
68994;BME280;56054;50.968;5.816;2023-07-24T04:50:28;99573.81;;;19.13;100.00
68994;BME280;56054;50.968;5.816;2023-07-24T04:53:35;99582.41;;;18.95;100.00
68994;BME280;56054;50.968;5.816;2023-07-24T04:56:41;99583.31;;;18.98;100.00
68994;BME280;56054;50.968;5.816;2023-07-24T04:59:48;99588.66;;;19.09;100.00
68994;BME280;56054;50.968;5.816;2023-07-24T05:02:55;99592.97;;;18.98;100.00
68994;BME280;56054;50.968;5.816;2023-07-24T05:06:03;99598.28;;;19.04;100.00
68994;BME280;56054;50.968;5.816;2023-07-24T05:09:09;99594.72;;;19.00;100.00
68994;BME280;56054;50.968;5.816;2023-07-24T05:12:17;99594.88;;;19.14;100.00
68994;BME280;56054;50.968;5.816;2023-07-24T05:15:24;99603.59;;;19.12;100.00
68994;BME280;56054;50.968;5.816;2023-07-24T05:18:30;99607.19;;;19.17;100.00
68994;BME280;56054;50.968;5.816;2023-07-24T05:21:37;99601.19;;;19.30;100.00
68994;BME280;56054;50.968;5.816;2023-07-24T05:24:45;99593.31;;;19.32;100.00
68994;BME280;56054;50.968;5.816;2023-07-24T05:27:52;99581.16;;;19.49;100.00
68994;BME280;56054;50.968;5.816;2023-07-24T05:31:02;99585.53;;;19.50;100.00
68994;BME280;56054;50.968;5.816;2023-07-24T05:34:10;99588.34;;;19.65;100.00
68994;BME280;56054;50.968;5.816;2023-07-24T05:37:17;99591.72;;;19.52;100.00
68994;BME280;56054;50.968;5.816;2023-07-24T05:40:24;99598.25;;;19.97;100.00
68994;BME280;56054;50.968;5.816;2023-07-24T05:43:31;99599.84;;;19.74;100.00
68994;BME280;56054;50.968;5.816;2023-07-24T05:46:38;99598.06;;;19.68;100.00
68994;BME280;56054;50.968;5.816;2023-07-24T05:49:44;99600.66;;;19.70;100.00
68994;BME280;56054;50.968;5.816;2023-07-24T05:52:52;99606.78;;;19.67;100.00
68994;BME280;56054;50.968;5.816;2023-07-24T05:56:00;99599.00;;;19.79;100.00
68994;BME280;56054;50.968;5.816;2023-07-24T05:59:07;99594.75;;;19.98;100.00
68994;BME280;56054;50.968;5.816;2023-07-24T06:02:14;99592.91;;;19.89;100.00
68994;BME280;56054;50.968;5.816;2023-07-24T06:05:21;99597.28;;;19.86;100.00
68994;BME280;56054;50.968;5.816;2023-07-24T06:08:28;99599.09;;;19.93;100.00
68994;BME280;56054;50.968;5.816;2023-07-24T06:11:35;99596.47;;;19.90;100.00
68994;BME280;56054;50.968;5.816;2023-07-24T06:14:42;99597.31;;;19.87;100.00
68994;BME280;56054;50.968;5.816;2023-07-24T06:17:49;99601.66;;;19.82;100.00
68994;BME280;56054;50.968;5.816;2023-07-24T06:21:02;99608.56;;;19.70;100.00
68994;BME280;56054;50.968;5.816;2023-07-24T06:24:10;99612.03;;;19.64;100.00
68994;BME280;56054;50.968;5.816;2023-07-24T06:27:17;99604.22;;;19.75;100.00
68994;BME280;56054;50.968;5.816;2023-07-24T06:30:24;99602.44;;;19.72;100.00
68994;BME280;56054;50.968;5.816;2023-07-24T06:33:31;99596.13;;;19.53;100.00
68994;BME280;56054;50.968;5.816;2023-07-24T06:36:38;99602.47;;;19.74;100.00
68994;BME280;56054;50.968;5.816;2023-07-24T06:39:45;99604.13;;;19.67;100.00
68994;BME280;56054;50.968;5.816;2023-07-24T06:42:52;99611.03;;;19.53;100.00
68994;BME280;56054;50.968;5.816;2023-07-24T06:45:59;99620.69;;;19.52;100.00
68994;BME280;56054;50.968;5.816;2023-07-24T06:49:06;99606.75;;;19.61;100.00
68994;BME280;56054;50.968;5.816;2023-07-24T06:52:13;99605.81;;;19.60;100.00
68994;BME280;56054;50.968;5.816;2023-07-24T06:55:20;99600.72;;;19.77;100.00
68994;BME280;56054;50.968;5.816;2023-07-24T06:58:27;99604.06;;;19.58;100.00
68994;BME280;56054;50.968;5.816;2023-07-24T07:01:34;99583.13;;;19.75;100.00
68994;BME280;56054;50.968;5.816;2023-07-24T07:04:41;99590.22;;;19.79;100.00
68994;BME280;56054;50.968;5.816;2023-07-24T07:07:48;99599.13;;;19.95;100.00
68994;BME280;56054;50.968;5.816;2023-07-24T07:10:58;99594.72;;;19.94;100.00
68994;BME280;56054;50.968;5.816;2023-07-24T07:14:06;99593.91;;;20.02;100.00
68994;BME280;56054;50.968;5.816;2023-07-24T07:17:13;99601.81;;;20.04;100.00
68994;BME280;56054;50.968;5.816;2023-07-24T07:20:20;99592.09;;;19.95;100.00
68994;BME280;56054;50.968;5.816;2023-07-24T07:23:27;99589.47;;;19.98;100.00
68994;BME280;56054;50.968;5.816;2023-07-24T07:26:34;99584.13;;;19.86;100.00
68994;BME280;56054;50.968;5.816;2023-07-24T07:29:41;99579.75;;;19.94;100.00
68994;BME280;56054;50.968;5.816;2023-07-24T07:32:48;99577.25;;;20.13;100.00
68994;BME280;56054;50.968;5.816;2023-07-24T07:35:55;99572.66;;;19.81;100.00
68994;BME280;56054;50.968;5.816;2023-07-24T07:39:02;99576.22;;;19.92;100.00
68994;BME280;56054;50.968;5.816;2023-07-24T07:42:09;99592.13;;;20.04;100.00
68994;BME280;56054;50.968;5.816;2023-07-24T07:45:16;99586.91;;;20.14;100.00
68994;BME280;56054;50.968;5.816;2023-07-24T07:48:23;99590.50;;;20.23;100.00
68994;BME280;56054;50.968;5.816;2023-07-24T07:51:33;99575.53;;;20.24;100.00
68994;BME280;56054;50.968;5.816;2023-07-24T07:54:41;99585.31;;;20.43;100.00
68994;BME280;56054;50.968;5.816;2023-07-24T07:57:48;99581.78;;;20.35;100.00
68994;BME280;56054;50.968;5.816;2023-07-24T08:00:55;99584.38;;;20.34;100.00
68994;BME280;56054;50.968;5.816;2023-07-24T08:04:02;99580.88;;;20.33;100.00
68994;BME280;56054;50.968;5.816;2023-07-24T08:07:09;99575.59;;;20.27;100.00
68994;BME280;56054;50.968;5.816;2023-07-24T08:10:16;99577.41;;;20.39;100.00
68994;BME280;56054;50.968;5.816;2023-07-24T08:13:23;99580.94;;;20.42;100.00
68994;BME280;56054;50.968;5.816;2023-07-24T08:16:30;99567.78;;;20.48;100.00
68994;BME280;56054;50.968;5.816;2023-07-24T08:19:37;99573.06;;;20.55;100.00
68994;BME280;56054;50.968;5.816;2023-07-24T08:22:44;99572.28;;;20.66;100.00
68994;BME280;56054;50.968;5.816;2023-07-24T08:25:52;99573.97;;;20.53;100.00
68994;BME280;56054;50.968;5.816;2023-07-24T08:28:59;99564.22;;;20.45;100.00
68994;BME280;56054;50.968;5.816;2023-07-24T08:32:06;99560.78;;;20.57;100.00
68994;BME280;56054;50.968;5.816;2023-07-24T08:35:13;99560.84;;;20.69;100.00
68994;BME280;56054;50.968;5.816;2023-07-24T08:38:20;99559.03;;;20.60;100.00
68994;BME280;56054;50.968;5.816;2023-07-24T08:41:27;99550.25;;;20.63;100.00
68994;BME280;56054;50.968;5.816;2023-07-24T08:44:34;99545.91;;;20.76;100.00
68994;BME280;56054;50.968;5.816;2023-07-24T08:47:43;99544.16;;;20.79;100.00
68994;BME280;56054;50.968;5.816;2023-07-24T08:50:50;99549.50;;;21.08;100.00
68994;BME280;56054;50.968;5.816;2023-07-24T08:53:59;99554.81;;;21.41;100.00
68994;BME280;56054;50.968;5.816;2023-07-24T08:57:08;99546.84;;;21.07;100.00
68994;BME280;56054;50.968;5.816;2023-07-24T09:00:15;99539.81;;;21.09;100.00
68994;BME280;56054;50.968;5.816;2023-07-24T09:03:22;99535.41;;;20.92;100.00
68994;BME280;56054;50.968;5.816;2023-07-24T09:06:29;99527.47;;;20.97;100.00
68994;BME280;56054;50.968;5.816;2023-07-24T09:09:36;99529.25;;;21.15;100.00
68994;BME280;56054;50.968;5.816;2023-07-24T09:12:43;99520.47;;;21.25;100.00
68994;BME280;56054;50.968;5.816;2023-07-24T09:15:51;99524.88;;;21.34;100.00
68994;BME280;56054;50.968;5.816;2023-07-24T09:18:58;99525.72;;;21.28;100.00
68994;BME280;56054;50.968;5.816;2023-07-24T09:22:12;99522.19;;;21.26;100.00
68994;BME280;56054;50.968;5.816;2023-07-24T09:25:32;99505.47;;;21.35;100.00
68994;BME280;56054;50.968;5.816;2023-07-24T09:28:39;99501.97;;;21.25;100.00
68994;BME280;56054;50.968;5.816;2023-07-24T09:31:46;99502.84;;;21.10;100.00
68994;BME280;56054;50.968;5.816;2023-07-24T09:34:53;99494.03;;;21.16;100.00
68994;BME280;56054;50.968;5.816;2023-07-24T09:38:05;99495.75;;;20.89;100.00
68994;BME280;56054;50.968;5.816;2023-07-24T09:41:13;99484.34;;;21.04;100.00
68994;BME280;56054;50.968;5.816;2023-07-24T09:44:20;99481.72;;;21.32;100.00
68994;BME280;56054;50.968;5.816;2023-07-24T09:47:27;99468.50;;;20.95;100.00
68994;BME280;56054;50.968;5.816;2023-07-24T09:50:34;99474.69;;;21.29;100.00
68994;BME280;56054;50.968;5.816;2023-07-24T09:53:47;99468.50;;;21.36;100.00
68994;BME280;56054;50.968;5.816;2023-07-24T09:56:58;99454.41;;;21.57;100.00
68994;BME280;56054;50.968;5.816;2023-07-24T10:00:07;99448.22;;;21.57;100.00
68994;BME280;56054;50.968;5.816;2023-07-24T10:03:16;99457.94;;;21.36;100.00
68994;BME280;56054;50.968;5.816;2023-07-24T10:06:24;99482.59;;;21.22;100.00
68994;BME280;56054;50.968;5.816;2023-07-24T10:09:31;99459.69;;;21.30;100.00
68994;BME280;56054;50.968;5.816;2023-07-24T10:12:39;99457.06;;;21.41;100.00
68994;BME280;56054;50.968;5.816;2023-07-24T10:15:47;99437.72;;;21.42;100.00
68994;BME280;56054;50.968;5.816;2023-07-24T10:18:54;99494.94;;;21.07;100.00
68994;BME280;56054;50.968;5.816;2023-07-24T10:22:01;99497.50;;;20.72;100.00
68994;BME280;56054;50.968;5.816;2023-07-24T10:25:09;99483.41;;;20.61;100.00
68994;BME280;56054;50.968;5.816;2023-07-24T10:28:16;99489.50;;;20.46;100.00
68994;BME280;56054;50.968;5.816;2023-07-24T10:31:24;99472.88;;;20.88;100.00
68994;BME280;56054;50.968;5.816;2023-07-24T10:34:41;99492.22;;;20.80;100.00
68994;BME280;56054;50.968;5.816;2023-07-24T10:37:59;99505.31;;;20.46;100.00
68994;BME280;56054;50.968;5.816;2023-07-24T10:41:10;99502.53;;;20.07;100.00
68994;BME280;56054;50.968;5.816;2023-07-24T10:44:18;99533.31;;;20.16;100.00
68994;BME280;56054;50.968;5.816;2023-07-24T10:47:25;99542.94;;;20.06;100.00
68994;BME280;56054;50.968;5.816;2023-07-24T10:50:39;99530.56;;;19.96;100.00
68994;BME280;56054;50.968;5.816;2023-07-24T10:53:49;99518.28;;;19.98;100.00
68994;BME280;56054;50.968;5.816;2023-07-24T10:56:59;99529.88;;;20.26;100.00
68994;BME280;56054;50.968;5.816;2023-07-24T11:00:07;99534.16;;;20.07;100.00
68994;BME280;56054;50.968;5.816;2023-07-24T11:03:16;99536.19;;;20.61;100.00
68994;BME280;56054;50.968;5.816;2023-07-24T11:06:26;99537.50;;;19.82;100.00
68994;BME280;56054;50.968;5.816;2023-07-24T11:09:35;99521.03;;;20.18;100.00
68994;BME280;56054;50.968;5.816;2023-07-24T11:12:43;99506.31;;;20.86;100.00
68994;BME280;56054;50.968;5.816;2023-07-24T11:15:50;99519.50;;;20.68;100.00
68994;BME280;56054;50.968;5.816;2023-07-24T11:18:58;99523.75;;;20.40;100.00
68994;BME280;56054;50.968;5.816;2023-07-24T11:22:05;99532.69;;;20.68;100.00
68994;BME280;56054;50.968;5.816;2023-07-24T11:25:14;99523.94;;;20.86;100.00
68994;BME280;56054;50.968;5.816;2023-07-24T11:28:22;99514.31;;;21.09;100.00
68994;BME280;56054;50.968;5.816;2023-07-24T11:31:36;99508.13;;;21.58;100.00
68994;BME280;56054;50.968;5.816;2023-07-24T11:34:44;99521.31;;;21.33;100.00
68994;BME280;56054;50.968;5.816;2023-07-24T11:37:51;99524.88;;;21.52;100.00
68994;BME280;56054;50.968;5.816;2023-07-24T11:40:58;99519.53;;;21.98;100.00
68994;BME280;56054;50.968;5.816;2023-07-24T11:44:05;99506.38;;;21.75;100.00
68994;BME280;56054;50.968;5.816;2023-07-24T11:47:12;99498.44;;;21.69;100.00
68994;BME280;56054;50.968;5.816;2023-07-24T11:50:19;99502.81;;;21.04;100.00
68994;BME280;56054;50.968;5.816;2023-07-24T11:56:33;99502.78;;;20.84;100.00
68994;BME280;56054;50.968;5.816;2023-07-24T11:59:40;99494.81;;;20.57;100.00
68994;BME280;56054;50.968;5.816;2023-07-24T12:02:47;99494.84;;;20.61;100.00
68994;BME280;56054;50.968;5.816;2023-07-24T12:05:54;99474.63;;;20.82;100.00
68994;BME280;56054;50.968;5.816;2023-07-24T12:09:04;99485.25;;;21.42;100.00
68994;BME280;56054;50.968;5.816;2023-07-24T12:12:12;99487.00;;;21.61;100.00
68994;BME280;56054;50.968;5.816;2023-07-24T12:15:19;99486.09;;;21.37;100.00
68994;BME280;56054;50.968;5.816;2023-07-24T12:18:33;99482.59;;;21.32;100.00
68994;BME280;56054;50.968;5.816;2023-07-24T12:21:40;99494.03;;;21.71;100.00
68994;BME280;56054;50.968;5.816;2023-07-24T12:24:47;99504.56;;;21.93;100.00
68994;BME280;56054;50.968;5.816;2023-07-24T12:27:54;99503.63;;;22.20;100.00
68994;BME280;56054;50.968;5.816;2023-07-24T12:31:01;99503.53;;;22.38;100.00
68994;BME280;56054;50.968;5.816;2023-07-24T12:34:08;99507.91;;;22.46;100.00
68994;BME280;56054;50.968;5.816;2023-07-24T12:37:15;99518.63;;;22.07;100.00
68994;BME280;56054;50.968;5.816;2023-07-24T12:40:22;99511.56;;;22.20;100.00
68994;BME280;56054;50.968;5.816;2023-07-24T12:43:29;99514.16;;;22.34;100.00
68994;BME280;56054;50.968;5.816;2023-07-24T12:46:36;99515.09;;;21.99;100.00
68994;BME280;56054;50.968;5.816;2023-07-24T12:49:43;99511.66;;;21.43;100.00
68994;BME280;56054;50.968;5.816;2023-07-24T12:52:50;99515.22;;;21.47;100.00
68994;BME280;56054;50.968;5.816;2023-07-24T12:55:57;99524.00;;;21.52;100.00
68994;BME280;56054;50.968;5.816;2023-07-24T12:59:04;99521.38;;;21.41;100.00
68994;BME280;56054;50.968;5.816;2023-07-24T13:02:11;99521.34;;;21.55;100.00
68994;BME280;56054;50.968;5.816;2023-07-24T13:05:18;99516.09;;;21.49;100.00
68994;BME280;56054;50.968;5.816;2023-07-24T13:08:25;99520.44;;;21.74;100.00
68994;BME280;56054;50.968;5.816;2023-07-24T13:11:32;99523.03;;;21.94;100.00
68994;BME280;56054;50.968;5.816;2023-07-24T13:14:39;99524.91;;;21.63;100.00
68994;BME280;56054;50.968;5.816;2023-07-24T13:17:47;99518.69;;;21.27;100.00
68994;BME280;56054;50.968;5.816;2023-07-24T13:20:58;99526.63;;;21.12;100.00
68994;BME280;56054;50.968;5.816;2023-07-24T13:24:06;99538.03;;;20.94;100.00
68994;BME280;56054;50.968;5.816;2023-07-24T13:27:13;99543.34;;;21.05;100.00
68994;BME280;56054;50.968;5.816;2023-07-24T13:30:20;99538.75;;;20.55;100.00
68994;BME280;56054;50.968;5.816;2023-07-24T13:33:27;99521.97;;;20.29;100.00
68994;BME280;56054;50.968;5.816;2023-07-24T13:36:34;99517.66;;;20.55;100.00
68994;BME280;56054;50.968;5.816;2023-07-24T13:39:41;99524.72;;;20.60;100.00
68994;BME280;56054;50.968;5.816;2023-07-24T13:42:48;99518.59;;;20.75;100.00
68994;BME280;56054;50.968;5.816;2023-07-24T13:45:55;99510.72;;;20.84;100.00
68994;BME280;56054;50.968;5.816;2023-07-24T13:49:02;99516.88;;;20.85;100.00
68994;BME280;56054;50.968;5.816;2023-07-24T13:58:57;99518.69;;;21.30;99.29
68994;BME280;56054;50.968;5.816;2023-07-24T14:02:04;99516.91;;;21.19;97.22
68994;BME280;56054;50.968;5.816;2023-07-24T14:05:11;99520.44;;;21.74;94.73
68994;BME280;56054;50.968;5.816;2023-07-24T14:08:18;99524.91;;;21.51;94.89
68994;BME280;56054;50.968;5.816;2023-07-24T14:11:25;99524.88;;;21.75;95.61
68994;BME280;56054;50.968;5.816;2023-07-24T14:14:32;99531.78;;;22.36;95.54
68994;BME280;56054;50.968;5.816;2023-07-24T14:17:40;99532.63;;;22.38;96.08
68994;BME280;56054;50.968;5.816;2023-07-24T14:20:47;99520.28;;;22.40;92.17
68994;BME280;56054;50.968;5.816;2023-07-24T14:23:54;99537.13;;;22.06;90.87
68994;BME280;56054;50.968;5.816;2023-07-24T14:27:01;99532.69;;;22.32;91.47
68994;BME280;56054;50.968;5.816;2023-07-24T14:30:09;99536.16;;;22.42;85.71
68994;BME280;56054;50.968;5.816;2023-07-24T14:33:16;99522.94;;;22.37;82.71
68994;BME280;56054;50.968;5.816;2023-07-24T14:36:23;99534.19;;;22.84;85.19
68994;BME280;56054;50.968;5.816;2023-07-24T14:39:30;99535.16;;;22.68;85.30
68994;BME280;56054;50.968;5.816;2023-07-24T14:42:37;99537.66;;;22.98;84.76
68994;BME280;56054;50.968;5.816;2023-07-24T14:45:44;99531.56;;;22.79;81.77
68994;BME280;56054;50.968;5.816;2023-07-24T14:48:51;99521.00;;;22.70;83.69
68994;BME280;56054;50.968;5.816;2023-07-24T14:51:58;99516.63;;;22.71;82.99
68994;BME280;56054;50.968;5.816;2023-07-24T14:55:06;99523.56;;;22.87;82.39
68994;BME280;56054;50.968;5.816;2023-07-24T14:58:13;99521.75;;;22.92;81.47
68994;BME280;56054;50.968;5.816;2023-07-24T15:01:21;99521.00;;;22.70;80.62
68994;BME280;56054;50.968;5.816;2023-07-24T15:04:28;99527.06;;;22.94;80.77
68994;BME280;56054;50.968;5.816;2023-07-24T15:07:35;99528.00;;;22.86;80.23
68994;BME280;56054;50.968;5.816;2023-07-24T15:10:43;99517.63;;;22.47;83.15
68994;BME280;56054;50.968;5.816;2023-07-24T15:14:00;99530.94;;;22.20;83.43
68994;BME280;56054;50.968;5.816;2023-07-24T15:20:39;99521.34;;;21.81;86.97
68994;BME280;56054;50.968;5.816;2023-07-24T15:23:47;99524.00;;;21.64;88.86
68994;BME280;56054;50.968;5.816;2023-07-24T15:26:54;99525.72;;;21.93;88.43
68994;BME280;56054;50.968;5.816;2023-07-24T15:30:01;99526.59;;;21.33;87.71
68994;BME280;56054;50.968;5.816;2023-07-24T15:33:08;99532.81;;;21.63;87.34
68994;BME280;56054;50.968;5.816;2023-07-24T15:36:15;99542.47;;;21.35;94.34
68994;BME280;56054;50.968;5.816;2023-07-24T15:39:22;99543.34;;;21.35;95.17
68994;BME280;56054;50.968;5.816;2023-07-24T15:42:29;99541.63;;;21.56;94.18
68994;BME280;56054;50.968;5.816;2023-07-24T15:45:37;99544.16;;;22.16;94.25
68994;BME280;56054;50.968;5.816;2023-07-24T15:48:44;99555.69;;;21.98;91.52
68994;BME280;56054;50.968;5.816;2023-07-24T15:51:51;99567.09;;;22.23;89.91
68994;BME280;56054;50.968;5.816;2023-07-24T15:54:58;99565.19;;;22.68;89.58
68994;BME280;56054;50.968;5.816;2023-07-24T15:58:05;99558.84;;;22.98;85.22
68994;BME280;56054;50.968;5.816;2023-07-24T16:01:12;99559.72;;;22.96;86.23
68994;BME280;56054;50.968;5.816;2023-07-24T16:04:19;99567.78;;;22.74;85.43
68994;BME280;56054;50.968;5.816;2023-07-24T16:07:26;99560.94;;;22.04;85.86
68994;BME280;56054;50.968;5.816;2023-07-24T16:10:33;99562.78;;;21.68;87.04
68994;BME280;56054;50.968;5.816;2023-07-24T16:13:41;99582.13;;;21.36;87.80
68994;BME280;56054;50.968;5.816;2023-07-24T16:16:48;99594.47;;;21.57;89.63
68994;BME280;56054;50.968;5.816;2023-07-24T16:19:55;99598.69;;;20.68;94.42
68994;BME280;56054;50.968;5.816;2023-07-24T16:23:02;99602.75;;;20.14;96.34
68994;BME280;56054;50.968;5.816;2023-07-24T16:26:09;99610.75;;;20.24;96.53
68994;BME280;56054;50.968;5.816;2023-07-24T16:29:16;99611.50;;;20.08;97.67
68994;BME280;56054;50.968;5.816;2023-07-24T16:32:24;99606.34;;;20.22;97.99
68994;BME280;56054;50.968;5.816;2023-07-24T16:35:34;99603.63;;;20.09;98.77
68994;BME280;56054;50.968;5.816;2023-07-24T16:38:41;99607.91;;;19.95;98.16
68994;BME280;56054;50.968;5.816;2023-07-24T16:41:48;99624.59;;;19.93;96.33